Time;durP1;ratioP1;P1;durP2;ratioP2;P2;SDS_P1;SDS_P2;PMS_P1;PMS_P2;Temp;Humidity;BMP_temperature;BMP_pressure;BME280_temperature;BME280_humidity;BME280_pressure;Samples;Min_cycle;Max_cycle;Signal;HPM_P1;HPM_P2
2020/07/13 00:01:18;;;;;;;3.7;2.1;;;;;;;13.4;78.35059;944.5587;;;;
2020/07/13 00:04:04;;;;;;;3.5;2;;;;;;;13.37;78.25195;944.5304;;;;
2020/07/13 00:06:23;;;;;;;3.1;2.2;;;;;;;13.39;78.03711;944.5386;;;;
2020/07/13 00:08:48;;;;;;;4.4;2.1;;;;;;;13.38;77.98926;944.5825;;;;
2020/07/13 00:11:14;;;;;;;3.5;1.9;;;;;;;13.39;77.91016;944.5602;;;;
2020/07/13 00:13:39;;;;;;;2.8;1.7;;;;;;;13.35;78.03027;944.5383;;;;
2020/07/13 00:16:07;;;;;;;3.3;1.9;;;;;;;13.32;78.1748;944.5179;;;;
2020/07/13 00:18:32;;;;;;;2.5;2.3;;;;;;;13.02;79.15332;944.5705;;;;
2020/07/13 00:20:57;;;;;;;2.7;2.1;;;;;;;13.03;79.44141;944.5402;;;;
2020/07/13 00:23:23;;;;;;;3.2;2.3;;;;;;;13.1;78.90332;944.5002;;;;
2020/07/13 00:25:48;;;;;;;2.6;2;;;;;;;13.03;79.00586;944.5363;;;;
2020/07/13 00:28:14;;;;;;;3.1;2.1;;;;;;;12.96;80.00293;944.536;;;;
2020/07/13 00:30:39;;;;;;;5.8;2.4;;;;;;;12.94;79.52832;944.5142;;;;
2020/07/13 00:33:07;;;;;;;2.8;2.1;;;;;;;12.92;79.61719;944.5428;;;;
2020/07/13 00:35:32;;;;;;;3.6;2.4;;;;;;;12.96;79.49805;944.512;;;;
2020/07/13 00:37:59;;;;;;;2.7;2.1;;;;;;;13.02;79.21094;944.4913;;;;
2020/07/13 00:40:24;;;;;;;2.4;2.1;;;;;;;12.93;79.27637;944.4494;;;;
2020/07/13 00:42:51;;;;;;;3.9;2.4;;;;;;;12.9;79.30371;944.465;;;;
2020/07/13 00:45:16;;;;;;;3.6;2;;;;;;;12.89;79.40723;944.4826;;;;
2020/07/13 00:47:44;;;;;;;2.3;2.1;;;;;;;12.82;79.57813;944.4914;;;;
2020/07/13 00:50:09;;;;;;;2.3;2.1;;;;;;;12.79;79.77734;944.4253;;;;
2020/07/13 00:52:36;;;;;;;4;2;;;;;;;12.82;79.83984;944.3978;;;;
2020/07/13 00:55:01;;;;;;;2.6;2.4;;;;;;;12.67;79.99512;944.4111;;;;
2020/07/13 00:57:27;;;;;;;2.7;2;;;;;;;12.47;80.78516;944.355;;;;
2020/07/13 00:59:52;;;;;;;4;2.3;;;;;;;12.12;82.35938;944.4331;;;;
2020/07/13 01:02:21;;;;;;;2.7;2.4;;;;;;;11.92;83.5127;944.4172;;;;
2020/07/13 01:04:55;;;;;;;6.5;3;;;;;;;12.05;83.23926;944.4481;;;;
2020/07/13 01:07:24;;;;;;;2.7;2.2;;;;;;;12.16;82.66406;944.3713;;;;
2020/07/13 01:09:49;;;;;;;2.3;2.1;;;;;;;12.31;82.02832;944.4031;;;;
2020/07/13 01:12:14;;;;;;;3.4;2.3;;;;;;;12.43;81.25977;944.3897;;;;
2020/07/13 01:14:45;;;;;;;4.9;2.3;;;;;;;12.48;80.84375;944.2617;;;;
2020/07/13 01:17:18;;;;;;;4.4;2.4;;;;;;;12.44;80.94043;944.278;;;;
2020/07/13 01:19:59;;;;;;;4.4;2.3;;;;;;;12.42;81.05176;944.2561;;;;
2020/07/13 01:22:34;;;;;;;4.9;2.3;;;;;;;12.32;81.34082;944.1117;;;;
2020/07/13 01:25:14;;;;;;;4;2.6;;;;;;;12.25;82.47656;944.2171;;;;
2020/07/13 01:27:41;;;;;;;2.4;2.2;;;;;;;12.33;81.8623;944.2261;;;;
2020/07/13 01:30:08;;;;;;;2.4;2.2;;;;;;;12.41;81.54297;944.235;;;;
2020/07/13 01:32:38;;;;;;;3.1;2.4;;;;;;;12.43;80.64063;944.2523;;;;
2020/07/13 01:35:03;;;;;;;2.8;2.5;;;;;;;12.36;80.99512;944.1138;;;;
2020/07/13 01:37:28;;;;;;;5.6;2.5;;;;;;;12.32;81.0332;944.1437;;;;
2020/07/13 01:39:53;;;;;;;3.9;2.4;;;;;;;12.21;81.48242;944.1479;;;;
2020/07/13 01:42:18;;;;;;;4.2;2.7;;;;;;;12.29;82.09375;944.1473;;;;
2020/07/13 01:44:44;;;;;;;3.2;2.3;;;;;;;12.31;81.22656;944.0996;;;;
2020/07/13 01:47:09;;;;;;;2.8;2.4;;;;;;;11.95;82.41895;944.0761;;;;
2020/07/13 01:49:34;;;;;;;3.4;2.6;;;;;;;11.79;83.20117;944.0952;;;;
2020/07/13 01:52:03;;;;;;;6.8;2.4;;;;;;;11.72;83.61035;944.0898;;;;
2020/07/13 01:54:28;;;;;;;2.7;2.3;;;;;;;11.74;83.59082;944.0878;;;;
2020/07/13 01:56:55;;;;;;;2.6;2.3;;;;;;;11.74;83.55859;944.0128;;;;
2020/07/13 01:59:20;;;;;;;2.6;2.4;;;;;;;11.81;83.2959;944.026;;;;
2020/07/13 02:01:48;;;;;;;7.2;2.6;;;;;;;11.73;83.58008;943.9952;;;;
2020/07/13 02:04:13;;;;;;;4.5;2.5;;;;;;;11.71;83.44824;943.9621;;;;
2020/07/13 02:06:39;;;;;;;3.3;2.5;;;;;;;11.67;83.54492;943.9832;;;;
2020/07/13 02:09:16;;;;;;;2.7;2.3;;;;;;;11.54;83.79492;943.9697;;;;
2020/07/13 02:11:45;;;;;;;3.8;2.4;;;;;;;11.56;83.86523;944.033;;;;
2020/07/13 02:14:10;;;;;;;3.7;2.5;;;;;;;11.62;83.53418;943.9808;;;;
2020/07/13 02:16:38;;;;;;;2.8;2.4;;;;;;;11.6;83.30176;943.9308;;;;
2020/07/13 02:19:03;;;;;;;6.2;2.8;;;;;;;11.49;83.83203;943.9045;;;;
2020/07/13 02:21:33;;;;;;;2.5;2.3;;;;;;;11.49;83.81836;943.9514;;;;
2020/07/13 02:23:59;;;;;;;2.8;2.5;;;;;;;11.53;83.58496;943.9121;;;;
2020/07/13 02:26:30;;;;;;;4.3;2.4;;;;;;;11.65;83.08301;943.935;;;;
2020/07/13 02:29:03;;;;;;;2.8;2.3;;;;;;;11.75;82.63281;943.9124;;;;
2020/07/13 02:31:32;;;;;;;3.2;2.3;;;;;;;11.73;82.41211;943.8961;;;;
2020/07/13 02:33:59;;;;;;;6.1;2.8;;;;;;;11.7;82.66992;943.9533;;;;
2020/07/13 02:36:24;;;;;;;3.9;2.7;;;;;;;11.71;82.37207;943.793;;;;
2020/07/13 02:38:50;;;;;;;2.9;2.3;;;;;;;11.68;82.35547;943.8317;;;;
2020/07/13 02:41:15;;;;;;;2.5;2.3;;;;;;;11.61;82.8457;943.8136;;;;
2020/07/13 02:43:41;;;;;;;3.1;2.5;;;;;;;11.55;82.8584;943.7768;;;;
2020/07/13 02:46:10;;;;;;;3.2;2.5;;;;;;;11.51;82.83984;943.707;;;;
2020/07/13 02:48:36;;;;;;;4.8;2.5;;;;;;;11.47;82.99121;943.7214;;;;
2020/07/13 02:51:02;;;;;;;3.2;2.3;;;;;;;11.51;82.78125;943.7157;;;;
2020/07/13 02:53:27;;;;;;;3.3;2.3;;;;;;;11.47;82.78516;943.6178;;;;
2020/07/13 02:55:54;;;;;;;4.2;2.7;;;;;;;11.18;84.20313;943.6654;;;;
2020/07/13 02:58:19;;;;;;;2.6;2.4;;;;;;;11.29;83.86035;943.6132;;;;
2020/07/13 03:00:51;;;;;;;3;2.6;;;;;;;11.36;83.44922;943.5066;;;;
2020/07/13 03:03:19;;;;;;;4.3;2.7;;;;;;;11.05;84.39453;943.5684;;;;
2020/07/13 03:05:45;;;;;;;3;2.7;;;;;;;10.78;86.13672;943.5818;;;;
2020/07/13 03:08:13;;;;;;;2.9;2.6;;;;;;;10.95;85.62402;943.5891;;;;
2020/07/13 03:10:38;;;;;;;3.1;2.5;;;;;;;11.08;84.78027;943.5643;;;;
2020/07/13 03:13:09;;;;;;;3.5;2.8;;;;;;;;;;;;;
2020/07/13 03:15:39;;;;;;;4.3;2.7;;;;;;;;;;;;;
2020/07/13 03:18:04;;;;;;;4;2.8;;;;;;;;;;;;;
2020/07/13 03:20:29;;;;;;;4.2;2.7;;;;;;;;;;;;;
2020/07/13 03:22:54;;;;;;;3.7;2.8;;;;;;;;;;;;;
2020/07/13 03:25:21;;;;;;;3.5;2.5;;;;;;;;;;;;;
2020/07/13 03:27:46;;;;;;;3;2.7;;;;;;;;;;;;;
2020/07/13 03:30:14;;;;;;;6.3;2.8;;;;;;;;;;;;;
2020/07/13 03:32:39;;;;;;;4.3;2.6;;;;;;;;;;;;;
2020/07/13 03:35:06;;;;;;;4.4;2.7;;;;;;;;;;;;;
2020/07/13 03:37:31;;;;;;;4.6;2.8;;;;;;;;;;;;;
2020/07/13 03:39:56;;;;;;;4;3;;;;;;;;;;;;;
2020/07/13 03:42:21;;;;;;;4.2;2.7;;;;;;;;;;;;;
2020/07/13 03:44:48;;;;;;;7.2;3.1;;;;;;;;;;;;;
2020/07/13 03:47:13;;;;;;;3.1;2.8;;;;;;;;;;;;;
2020/07/13 03:49:39;;;;;;;3.4;2.6;;;;;;;;;;;;;
2020/07/13 03:52:04;;;;;;;3.7;2.9;;;;;;;;;;;;;
2020/07/13 03:54:30;;;;;;;6.6;3;;;;;;;;;;;;;
2020/07/13 03:56:55;;;;;;;4.8;2.9;;;;;;;;;;;;;
2020/07/13 03:59:20;;;;;;;9.2;3.2;;;;;;;;;;;;;
2020/07/13 04:02:34;;;;;;;3.5;2.7;;;;;;;11.1;84.87598;943.4849;;;;
2020/07/13 04:05:01;;;;;;;4.3;2.8;;;;;;;11.2;84.27734;943.492;;;;
2020/07/13 04:07:28;;;;;;;4.1;2.6;;;;;;;11.04;84.32617;943.5119;;;;
2020/07/13 04:09:54;;;;;;;3.5;2.7;;;;;;;10.89;85.02734;943.5083;;;;
2020/07/13 04:12:19;;;;;;;3.1;2.7;;;;;;;10.76;85.45898;943.5153;;;;
2020/07/13 04:14:48;;;;;;;3;2.7;;;;;;;10.94;85.5293;943.4334;;;;
2020/07/13 04:17:12;;;;;;;2.7;2.5;;;;;;;11.11;85.33496;943.4341;;;;
2020/07/13 04:19:42;;;;;;;7.3;3;;;;;;;11.14;84.12793;943.4217;;;;
2020/07/13 04:22:06;;;;;;;5.9;2.7;;;;;;;11.09;85.15918;943.4903;;;;
2020/07/13 04:25:39;;;;;;;5.6;2.9;;;;;;;11.08;84.8584;943.4877;;;;
2020/07/13 04:28:04;;;;;;;4.9;3;;;;;;;10.86;85.61816;943.5756;;;;
2020/07/13 04:30:36;;;;;;;5.5;3.1;;;;;;;10.86;86.05176;943.5883;;;;
2020/07/13 04:33:01;;;;;;;6.6;3.1;;;;;;;11.12;84.83301;943.4549;;;;
2020/07/13 04:35:26;;;;;;;5.1;2.6;;;;;;;11.24;83.94336;943.5217;;;;
2020/07/13 04:37:51;;;;;;;4.6;2.9;;;;;;;10.98;84.94434;943.4994;;;;
2020/07/13 04:40:19;;;;;;;5.3;2.8;;;;;;;11.09;85.45703;943.389;;;;
2020/07/13 04:42:44;;;;;;;4.1;2.5;;;;;;;11.24;84.22754;943.4299;;;;
2020/07/13 04:45:10;;;;;;;4;2.7;;;;;;;11.31;83.88672;943.4677;;;;
2020/07/13 04:47:37;;;;;;;6.5;2.9;;;;;;;11.28;84.06445;943.4648;;;;
2020/07/13 04:50:18;;;;;;;5.1;2.9;;;;;;;11.5;83.33984;943.4436;;;;
2020/07/13 04:52:44;;;;;;;4.7;3;;;;;;;11.64;83.24219;943.4866;;;;
2020/07/13 04:55:12;;;;;;;11;3.2;;;;;;;11.54;82.98242;943.4697;;;;
2020/07/13 04:57:37;;;;;;;8.4;3.3;;;;;;;11.59;82.76172;943.3889;;;;
2020/07/13 05:00:03;;;;;;;6;2.8;;;;;;;11.61;82.68555;943.4542;;;;
2020/07/13 05:02:42;;;;;;;5.7;2.5;;;;;;;11.66;82.4541;943.4708;;;;
2020/07/13 05:05:11;;;;;;;3.7;2.6;;;;;;;11.57;82.93066;943.4413;;;;
2020/07/13 05:07:43;;;;;;;5.9;2.8;;;;;;;11.65;82.93262;943.4969;;;;
2020/07/13 05:10:17;;;;;;;4.5;3;;;;;;;11.66;83.14063;943.5106;;;;
2020/07/13 05:12:49;;;;;;;4.5;2.6;;;;;;;12.19;82.63477;943.4431;;;;
2020/07/13 05:15:32;;;;;;;5.5;2.1;;;;;;;13.51;77.09375;943.4893;;;;
2020/07/13 05:17:58;;;;;;;6.9;1.9;;;;;;;14.83;71.64063;943.4408;;;;
2020/07/13 05:20:25;;;;;;;5.5;1.9;;;;;;;15.77;67.79688;943.4163;;;;
2020/07/13 05:22:51;;;;;;;4.6;1.7;;;;;;;16.95;64.15723;943.4451;;;;
2020/07/13 05:25:20;;;;;;;4.6;1.6;;;;;;;17.73;60.66016;943.478;;;;
2020/07/13 05:27:48;;;;;;;5.1;1.5;;;;;;;18.62;59.04004;943.4031;;;;
2020/07/13 05:30:17;;;;;;;6.5;1.7;;;;;;;18.94;56.68457;943.4024;;;;
2020/07/13 05:32:43;;;;;;;3;1.2;;;;;;;19.38;55.26074;943.3365;;;;
2020/07/13 05:35:08;;;;;;;3.1;1.3;;;;;;;19.63;53.97461;943.3397;;;;
2020/07/13 05:37:34;;;;;;;4.3;1.4;;;;;;;19.93;53.11426;943.3638;;;;
2020/07/13 05:40:00;;;;;;;3.3;1.2;;;;;;;20.39;52.43359;943.3538;;;;
2020/07/13 05:42:41;;;;;;;5.1;1.4;;;;;;;21.01;51.15039;943.3772;;;;
2020/07/13 05:45:05;;;;;;;4.6;3;;;;;;;21;50.35352;943.3452;;;;
2020/07/13 05:47:30;;;;;;;4.7;2.6;;;;;;;21.18;49.56738;943.3865;;;;
2020/07/13 05:49:58;;;;;;;5.3;3.3;;;;;;;21.65;50.68457;943.3198;;;;
2020/07/13 05:52:24;;;;;;;5.7;3;;;;;;;22.27;47.54297;943.3279;;;;
2020/07/13 05:54:57;;;;;;;2.3;1.2;;;;;;;23.08;44.43359;943.2612;;;;
2020/07/13 05:57:26;;;;;;;1.2;1;;;;;;;23.53;43.04492;943.235;;;;
2020/07/13 05:59:55;;;;;;;3.6;1.3;;;;;;;23.71;44.26074;943.2015;;;;
2020/07/13 06:02:19;;;;;;;2.6;1.2;;;;;;;23.28;46.61621;943.2576;;;;
2020/07/13 06:04:45;;;;;;;2.7;1;;;;;;;23.53;42.87891;943.2726;;;;
2020/07/13 06:07:10;;;;;;;1.8;1.1;;;;;;;24.46;41.1543;943.2367;;;;
2020/07/13 06:09:36;;;;;;;3.5;1.1;;;;;;;24.26;44.08008;943.2288;;;;
2020/07/13 06:12:04;;;;;;;2.9;1.3;;;;;;;25.47;40.05469;943.2437;;;;
2020/07/13 06:14:39;;;;;;;2.8;1.2;;;;;;;25.72;40.3125;943.2333;;;;
2020/07/13 06:17:04;;;;;;;2.1;1.2;;;;;;;25.16;41.79688;943.2407;;;;
2020/07/13 06:19:29;;;;;;;4;1.2;;;;;;;25.5;39.8916;943.2003;;;;
2020/07/13 06:21:55;;;;;;;3.1;1.4;;;;;;;25.95;39.11523;943.1956;;;;
2020/07/13 06:24:20;;;;;;;1.5;1.2;;;;;;;26.05;40.22461;943.2256;;;;
2020/07/13 06:26:52;;;;;;;2.2;1.4;;;;;;;25.36;42.41797;943.2015;;;;
2020/07/13 06:29:30;;;;;;;3.5;1.2;;;;;;;26.35;38.16895;943.1802;;;;
2020/07/13 06:31:55;;;;;;;2.3;1.2;;;;;;;26.88;39.6709;943.1261;;;;
2020/07/13 06:34:24;;;;;;;2.7;1;;;;;;;26.01;41.33105;943.1939;;;;
2020/07/13 06:36:52;;;;;;;1.6;1;;;;;;;27.02;37.01563;943.1142;;;;
2020/07/13 06:39:17;;;;;;;1.4;1;;;;;;;26.38;40.15918;943.1216;;;;
2020/07/13 06:41:43;;;;;;;1.9;1;;;;;;;25.99;41.56738;943.157;;;;
2020/07/13 06:44:08;;;;;;;2;1;;;;;;;26.93;36.94922;943.0745;;;;
2020/07/13 06:46:33;;;;;;;3.2;1;;;;;;;28.17;35.04395;942.9955;;;;
2020/07/13 06:49:00;;;;;;;1.6;0.8;;;;;;;28.1;36.05957;942.9545;;;;
2020/07/13 06:51:25;;;;;;;2.3;1.1;;;;;;;28.05;37.94434;942.9395;;;;
2020/07/13 06:53:53;;;;;;;1.8;0.9;;;;;;;28.52;36.83008;942.9033;;;;
2020/07/13 06:56:20;;;;;;;2.1;0.9;;;;;;;29.7;32.50391;942.9302;;;;
2020/07/13 06:58:45;;;;;;;1.5;0.9;;;;;;;29.91;35.2627;942.8484;;;;
2020/07/13 07:01:15;;;;;;;2.1;1.1;;;;;;;30.32;33.01367;942.877;;;;
2020/07/13 07:03:40;;;;;;;5.2;1;;;;;;;29.73;34.85449;942.8683;;;;
2020/07/13 07:06:05;;;;;;;1.9;1;;;;;;;30.4;32.2793;942.8425;;;;
2020/07/13 07:08:30;;;;;;;1.5;0.9;;;;;;;30.71;33.9502;942.8359;;;;
2020/07/13 07:10:56;;;;;;;2.1;0.9;;;;;;;31.63;31.74414;942.7654;;;;
2020/07/13 07:13:21;;;;;;;1.7;0.9;;;;;;;31.57;31.86035;942.8482;;;;
2020/07/13 07:15:53;;;;;;;1.7;0.8;;;;;;;31.22;29.31055;942.8269;;;;
2020/07/13 07:18:18;;;;;;;1.4;0.8;;;;;;;31.6;31.4668;942.8008;;;;
2020/07/13 07:20:43;;;;;;;0.8;0.8;;;;;;;32.14;28.79492;942.8455;;;;
2020/07/13 07:23:12;;;;;;;1.9;0.9;;;;;;;32.24;30.46777;942.7844;;;;
2020/07/13 07:25:38;;;;;;;1.9;1;;;;;;;32.57;29.61426;942.7547;;;;
2020/07/13 07:28:04;;;;;;;1.9;0.9;;;;;;;33.04;29.54883;942.7014;;;;
2020/07/13 07:30:31;;;;;;;5.1;1.1;;;;;;;33.03;29.12793;942.7755;;;;
2020/07/13 07:32:56;;;;;;;1.4;0.8;;;;;;;33;29.9668;942.6865;;;;
2020/07/13 07:35:21;;;;;;;2.4;0.9;;;;;;;30.88;32.64844;942.6639;;;;
2020/07/13 07:37:46;;;;;;;2.7;0.9;;;;;;;31.25;32.9375;942.6688;;;;
2020/07/13 07:40:11;;;;;;;1.7;0.8;;;;;;;31.18;32.26367;942.6422;;;;
2020/07/13 07:42:53;;;;;;;2.1;0.9;;;;;;;32.64;29.52246;942.6213;;;;
2020/07/13 07:45:26;;;;;;;1;0.9;;;;;;;32.82;30.51855;942.6411;;;;
2020/07/13 07:47:54;;;;;;;2.2;0.7;;;;;;;33.85;28.69922;942.6436;;;;
2020/07/13 07:50:21;;;;;;;1.5;1;;;;;;;34.55;27.06738;942.5687;;;;
2020/07/13 07:52:47;;;;;;;2;0.9;;;;;;;34.67;26.8457;942.5231;;;;
2020/07/13 07:55:19;;;;;;;1.3;0.7;;;;;;;34.16;27.33398;942.5758;;;;
2020/07/13 07:57:43;;;;;;;1.5;0.7;;;;;;;33.67;28.42285;942.5542;;;;
2020/07/13 08:00:09;;;;;;;1.3;0.8;;;;;;;33.31;28.29199;942.5214;;;;
2020/07/13 08:02:34;;;;;;;1.3;0.7;;;;;;;33.2;28.00879;942.5508;;;;
2020/07/13 08:05:01;;;;;;;1.9;0.7;;;;;;;33.96;28.15234;942.5865;;;;
2020/07/13 08:07:26;;;;;;;1.4;0.8;;;;;;;34.43;27.30176;942.5262;;;;
2020/07/13 08:09:51;;;;;;;1.6;0.9;;;;;;;35.09;27.19629;942.5048;;;;
2020/07/13 08:12:21;;;;;;;2.8;1;;;;;;;35.35;27.5625;942.5228;;;;
2020/07/13 08:14:44;;;;;;;1.4;0.9;;;;;;;35.88;26.55469;942.4655;;;;
2020/07/13 08:17:11;;;;;;;1.8;0.8;;;;;;;35.85;25.07813;942.4498;;;;
2020/07/13 08:19:36;;;;;;;1.5;0.8;;;;;;;35.78;25.1709;942.4512;;;;
2020/07/13 08:22:04;;;;;;;0.9;0.7;;;;;;;35.63;25.48926;942.4323;;;;
2020/07/13 08:24:26;;;;;;;3.1;0.8;;;;;;;35.46;26.08301;942.4221;;;;
2020/07/13 08:26:52;;;;;;;1.7;0.8;;;;;;;35.25;26.20313;942.4063;;;;
2020/07/13 08:29:17;;;;;;;1.3;0.8;;;;;;;34.1;26.12598;942.382;;;;
2020/07/13 08:31:42;;;;;;;2.7;0.7;;;;;;;34.21;27.69727;942.4255;;;;
2020/07/13 08:34:07;;;;;;;1.3;0.8;;;;;;;33.64;28.3125;942.3738;;;;
2020/07/13 08:36:32;;;;;;;2.2;0.8;;;;;;;34.06;28.29004;942.3762;;;;
2020/07/13 08:38:59;;;;;;;1.4;0.8;;;;;;;32.3;30.05273;942.3245;;;;
2020/07/13 08:41:25;;;;;;;2.5;0.9;;;;;;;31.62;30.76172;942.3495;;;;
2020/07/13 08:43:50;;;;;;;1.2;0.9;;;;;;;32.34;30.41504;942.3566;;;;
2020/07/13 08:46:17;;;;;;;4.2;1.2;;;;;;;32.95;29.45898;942.2957;;;;
2020/07/13 08:48:42;;;;;;;3.1;0.7;;;;;;;33.83;28.9873;942.3487;;;;
2020/07/13 08:51:08;;;;;;;1.6;0.9;;;;;;;34.58;27.96094;942.3139;;;;
2020/07/13 08:53:35;;;;;;;1.7;0.8;;;;;;;34.4;27.56445;942.3235;;;;
2020/07/13 08:56:00;;;;;;;1.7;0.8;;;;;;;34.29;27.4375;942.3017;;;;
2020/07/13 08:58:25;;;;;;;1.7;0.8;;;;;;;34.37;28.05664;942.2855;;;;
2020/07/13 09:00:51;;;;;;;1.2;0.9;;;;;;;34.73;28.35645;942.283;;;;
2020/07/13 09:03:16;;;;;;;2.3;0.8;;;;;;;34.61;26.66113;942.1917;;;;
2020/07/13 09:05:41;;;;;;;1.8;1;;;;;;;34.58;27.10547;942.1877;;;;
2020/07/13 09:08:06;;;;;;;2;0.9;;;;;;;34.38;27.82813;942.1805;;;;
2020/07/13 09:10:36;;;;;;;2.2;0.9;;;;;;;33.33;29.30371;942.1652;;;;
2020/07/13 09:13:11;;;;;;;1.7;0.8;;;;;;;33.58;28.98242;942.1636;;;;
2020/07/13 09:15:48;;;;;;;1;0.9;;;;;;;33.06;29.89844;942.1143;;;;
2020/07/13 09:18:19;;;;;;;1.8;1;;;;;;;32.67;30.56836;942.0834;;;;
2020/07/13 09:21:00;;;;;;;1.4;0.9;;;;;;;32.67;30.72461;942.0577;;;;
2020/07/13 09:23:26;;;;;;;3.2;0.9;;;;;;;32.29;30.73535;942.068;;;;
2020/07/13 09:26:03;;;;;;;1.7;0.9;;;;;;;31.78;31.51563;942.0753;;;;
2020/07/13 09:28:28;;;;;;;1.7;0.9;;;;;;;31.61;33.03613;942.0577;;;;
2020/07/13 09:30:55;;;;;;;1.5;1;;;;;;;31.72;32.95996;942.0468;;;;
2020/07/13 09:33:24;;;;;;;2.8;1.2;;;;;;;31.37;34.07129;942.0551;;;;
2020/07/13 09:35:49;;;;;;;2.6;1.1;;;;;;;31.32;33.93652;942.0314;;;;
2020/07/13 09:38:19;;;;;;;1.3;1.1;;;;;;;30.72;34.93164;941.9871;;;;
2020/07/13 09:40:55;;;;;;;2.8;1.1;;;;;;;30.09;34.96582;942.0656;;;;
2020/07/13 09:43:24;;;;;;;2.3;0.9;;;;;;;30.15;35.62695;941.9706;;;;
2020/07/13 09:45:50;;;;;;;1.6;1;;;;;;;29.64;37.16113;941.9779;;;;
2020/07/13 09:48:18;;;;;;;1.7;1.1;;;;;;;29.61;38.18359;941.9928;;;;
2020/07/13 09:51:33;;;;;;;1.9;1.1;;;;;;;29.57;37.60742;941.9703;;;;
2020/07/13 09:53:58;;;;;;;1.3;0.8;;;;;;;29.56;38.64453;941.9639;;;;
2020/07/13 09:56:24;;;;;;;2;0.9;;;;;;;29.69;38.48828;941.9285;;;;
2020/07/13 09:58:49;;;;;;;2.4;1.1;;;;;;;29.42;38.50098;941.909;;;;
2020/07/13 10:01:15;;;;;;;5.9;1.2;;;;;;;29.31;38.84863;941.9162;;;;
2020/07/13 10:03:45;;;;;;;1.8;1.1;;;;;;;28.82;38.33105;941.8155;;;;
2020/07/13 10:06:09;;;;;;;2.4;1;;;;;;;28.92;39.43457;941.8378;;;;
2020/07/13 10:08:36;;;;;;;3.2;1.1;;;;;;;28.81;39.80566;941.8032;;;;
2020/07/13 10:11:13;;;;;;;1.5;1;;;;;;;28.43;39.58105;941.7548;;;;
2020/07/13 10:13:38;;;;;;;2.9;1.2;;;;;;;27.83;39.68262;941.7202;;;;
2020/07/13 10:16:06;;;;;;;2;0.9;;;;;;;27.2;40.39844;941.7416;;;;
2020/07/13 10:18:33;;;;;;;6.1;1.3;;;;;;;26.83;41.60938;941.7428;;;;
2020/07/13 10:21:00;;;;;;;2.4;1;;;;;;;26.87;41.86133;941.7245;;;;
2020/07/13 10:23:24;;;;;;;1.6;1.1;;;;;;;26.65;41.77051;941.6428;;;;
2020/07/13 10:25:55;;;;;;;3.6;1.1;;;;;;;26.74;41.99219;941.6783;;;;
2020/07/13 10:28:20;;;;;;;7;2.4;;;;;;;26.55;43.18164;941.6412;;;;
2020/07/13 10:30:47;;;;;;;9.9;3.1;;;;;;;26.76;42.65723;941.6528;;;;
2020/07/13 10:33:13;;;;;;;2.4;1.3;;;;;;;26.79;42.15039;941.5812;;;;
2020/07/13 10:35:38;;;;;;;2.3;1.3;;;;;;;26.85;42.27441;941.6178;;;;
2020/07/13 10:38:05;;;;;;;3.5;1.3;;;;;;;26.71;43.6709;941.5767;;;;
2020/07/13 10:40:34;;;;;;;3.3;1.4;;;;;;;27.05;43.75195;941.5342;;;;
2020/07/13 10:42:59;;;;;;;5.2;1.7;;;;;;;27.35;40.70898;941.5994;;;;
2020/07/13 10:45:30;;;;;;;4.5;1.6;;;;;;;27.57;41.40527;941.5094;;;;
2020/07/13 10:47:56;;;;;;;2.8;1;;;;;;;27.62;40.92383;941.4495;;;;
2020/07/13 10:50:24;;;;;;;1.8;1.2;;;;;;;27.52;41.1748;941.4767;;;;
2020/07/13 10:52:49;;;;;;;2;1.1;;;;;;;27.39;41.1748;941.4927;;;;
2020/07/13 10:55:19;;;;;;;2.5;1.1;;;;;;;26.91;39.88672;941.4937;;;;
2020/07/13 10:57:46;;;;;;;2.4;1.2;;;;;;;26.6;42.81934;941.4014;;;;
2020/07/13 11:00:14;;;;;;;3.4;1.3;;;;;;;26.8;42.53125;941.4227;;;;
2020/07/13 11:02:39;;;;;;;2.1;1;;;;;;;26.98;42.0625;941.4078;;;;
2020/07/13 11:05:39;;;;;;;1.5;1;;;;;;;26.81;41.6543;941.4003;;;;
2020/07/13 11:07:40;;;;;;;2.1;1.1;;;;;;;26.37;45.14258;941.3275;;;;
2020/07/13 11:10:11;;;;;;;2.4;1.1;;;;;;;26.56;43.56055;941.2759;;;;
2020/07/13 11:12:36;;;;;;;3.9;1;;;;;;;26.41;44.06738;941.1846;;;;
2020/07/13 11:15:44;;;;;;;2;1.2;;;;;;;26.33;43.20801;941.2372;;;;
2020/07/13 11:18:09;;;;;;;1.7;1.1;;;;;;;25.7;45.21582;941.1408;;;;
2020/07/13 11:20:34;;;;;;;2.1;1.2;;;;;;;25.4;47.52344;941.155;;;;
2020/07/13 11:22:59;;;;;;;2.9;1.1;;;;;;;25.61;45.39551;941.1058;;;;
2020/07/13 11:25:26;;;;;;;5.3;1.2;;;;;;;25.74;43.99023;941.1292;;;;
2020/07/13 11:27:51;;;;;;;2.5;1.2;;;;;;;25.75;44.68848;941.0751;;;;
2020/07/13 11:30:21;;;;;;;2.5;1.1;;;;;;;25.89;44.53711;941.028;;;;
2020/07/13 11:32:46;;;;;;;2.4;1.2;;;;;;;25.86;42.27637;941.0294;;;;
2020/07/13 11:35:13;;;;;;;1.2;1;;;;;;;26.01;42.32617;941.0103;;;;
2020/07/13 11:37:38;;;;;;;2.1;1;;;;;;;25.86;44.49902;940.9275;;;;
2020/07/13 11:40:06;;;;;;;3.1;0.9;;;;;;;26.15;43.61621;940.9219;;;;
2020/07/13 11:42:31;;;;;;;2.1;1.2;;;;;;;26.14;43.35547;940.8741;;;;
2020/07/13 11:44:56;;;;;;;1.3;0.9;;;;;;;26.14;42.44531;940.848;;;;
2020/07/13 11:47:24;;;;;;;2.1;1.1;;;;;;;26.1;42.40527;940.8859;;;;
2020/07/13 11:49:50;;;;;;;1.4;1;;;;;;;26.16;44.17285;940.8022;;;;
2020/07/13 11:52:15;;;;;;;4.2;1.3;;;;;;;26.03;43.97266;940.8105;;;;
2020/07/13 11:54:40;;;;;;;3.3;1.3;;;;;;;26.06;42.44922;940.7888;;;;
2020/07/13 11:57:05;;;;;;;1.6;1;;;;;;;25.97;43.26758;940.7665;;;;
2020/07/13 11:59:30;;;;;;;3.3;1;;;;;;;26.1;43.94336;940.7969;;;;
2020/07/13 12:01:57;;;;;;;4.5;1.1;;;;;;;25.76;42.82324;940.7455;;;;
2020/07/13 12:04:21;;;;;;;5.3;1.9;;;;;;;25.56;41.5625;940.6996;;;;
2020/07/13 12:06:47;;;;;;;3.8;1.5;;;;;;;25.71;43.50195;940.653;;;;
2020/07/13 12:09:12;;;;;;;8;3;;;;;;;25.87;44.61816;940.6895;;;;
2020/07/13 12:11:37;;;;;;;7.7;3.6;;;;;;;25.92;42.63672;940.6603;;;;
2020/07/13 12:14:03;;;;;;;10;3.3;;;;;;;25.98;42.14551;940.5514;;;;
2020/07/13 12:16:28;;;;;;;4.8;1.8;;;;;;;26.08;43.88184;940.5697;;;;
2020/07/13 12:18:54;;;;;;;6.7;2;;;;;;;26.25;42.0166;940.5418;;;;
2020/07/13 12:21:19;;;;;;;4.2;2.1;;;;;;;26.34;41.37402;940.5703;;;;
2020/07/13 12:23:46;;;;;;;3.8;1.9;;;;;;;26.17;43.31152;940.5117;;;;
2020/07/13 12:26:11;;;;;;;2.8;1.2;;;;;;;26.17;44.67188;940.5239;;;;
2020/07/13 12:28:36;;;;;;;4.8;1.8;;;;;;;26.34;43.3623;940.5759;;;;
2020/07/13 12:31:02;;;;;;;2.9;1.3;;;;;;;26.34;41.88379;940.54;;;;
2020/07/13 12:33:27;;;;;;;3.4;1.5;;;;;;;26.26;42.4209;940.5266;;;;
2020/07/13 12:35:52;;;;;;;2.1;0.9;;;;;;;26.52;43.16699;940.4731;;;;
2020/07/13 12:38:17;;;;;;;4.5;1.4;;;;;;;26.64;42.33789;940.4109;;;;
2020/07/13 12:40:46;;;;;;;5.5;1.3;;;;;;;26.66;43.80859;940.4648;;;;
2020/07/13 12:43:14;;;;;;;4.9;2.5;;;;;;;26.58;43.26758;940.4421;;;;
2020/07/13 12:45:39;;;;;;;7.2;3.2;;;;;;;26.34;42.67676;940.3773;;;;
2020/07/13 12:49:22;;;;;;;3.1;1.6;;;;;;;26.3;43.71387;940.38;;;;
2020/07/13 12:51:47;;;;;;;7.7;3.2;;;;;;;26.32;42.9707;940.3767;;;;
2020/07/13 12:54:13;;;;;;;5.7;2.1;;;;;;;26.12;41.76855;940.2899;;;;
2020/07/13 12:56:38;;;;;;;5.1;2.2;;;;;;;26.19;43.1709;940.3312;;;;
2020/07/13 12:59:03;;;;;;;8.8;2.6;;;;;;;26.08;41.23145;940.3333;;;;
2020/07/13 13:01:28;;;;;;;7.8;2.2;;;;;;;25.86;40.97559;940.2903;;;;
2020/07/13 13:03:55;;;;;;;3.7;1.8;;;;;;;25.38;41.43945;940.3053;;;;
2020/07/13 13:06:20;;;;;;;6.7;2.3;;;;;;;25.34;41.90723;940.2991;;;;
2020/07/13 13:08:45;;;;;;;4.7;1.7;;;;;;;25.46;42.33301;940.2751;;;;
2020/07/13 13:11:11;;;;;;;5;1.8;;;;;;;25.43;44.05469;940.248;;;;
2020/07/13 13:13:36;;;;;;;4.4;2;;;;;;;25.51;44.41699;940.2949;;;;
2020/07/13 13:16:02;;;;;;;6.4;2.4;;;;;;;25.39;43.53027;940.2615;;;;
2020/07/13 13:18:27;;;;;;;3.1;1.5;;;;;;;25.23;44.69531;940.2662;;;;
2020/07/13 13:20:52;;;;;;;5.6;1.7;;;;;;;25.08;44.58594;940.2561;;;;
2020/07/13 13:23:18;;;;;;;4.6;2.1;;;;;;;25.16;43.43652;940.2472;;;;
2020/07/13 13:25:43;;;;;;;3.4;1.5;;;;;;;25.02;42.92871;940.2536;;;;
2020/07/13 13:28:09;;;;;;;3.8;1.5;;;;;;;25.07;45.04492;940.2576;;;;
2020/07/13 13:30:34;;;;;;;2.6;1.5;;;;;;;25.13;43.48145;940.2646;;;;
2020/07/13 13:33:00;;;;;;;5.3;1.6;;;;;;;25.03;44.93457;940.2338;;;;
2020/07/13 13:35:27;;;;;;;3.3;1.3;;;;;;;25.06;44.00586;940.2321;;;;
2020/07/13 13:37:54;;;;;;;6.1;1.5;;;;;;;24.71;44.20703;940.302;;;;
2020/07/13 13:40:25;;;;;;;4.4;1.6;;;;;;;24.76;44.23633;940.2608;;;;
2020/07/13 13:42:51;;;;;;;2.8;1.4;;;;;;;24.71;43.52344;940.1735;;;;
2020/07/13 13:45:28;;;;;;;2.1;1.5;;;;;;;24.62;44.16309;940.2216;;;;
2020/07/13 13:47:53;;;;;;;5.6;2;;;;;;;24.83;45.11426;940.2084;;;;
2020/07/13 13:50:19;;;;;;;4.2;1.5;;;;;;;25.03;44.16797;940.2022;;;;
2020/07/13 13:52:43;;;;;;;2.8;1.5;;;;;;;25.24;46.27832;940.1926;;;;
2020/07/13 13:55:09;;;;;;;3.5;1.2;;;;;;;25.41;44.34766;940.2316;;;;
2020/07/13 13:57:34;;;;;;;2.7;0.9;;;;;;;25.29;43.01367;940.1337;;;;
2020/07/13 14:03:11;;;;;;;1.4;1.1;;;;;;;25.54;43.26074;940.1361;;;;
2020/07/13 14:05:40;;;;;;;1.8;1;;;;;;;25.54;42.94336;940.1483;;;;
2020/07/13 14:08:10;;;;;;;4.9;1.1;;;;;;;25.41;42.46973;940.1253;;;;
2020/07/13 14:10:47;;;;;;;1.7;1.1;;;;;;;25.14;41.91309;940.1083;;;;
2020/07/13 14:13:12;;;;;;;6.6;1.5;;;;;;;25.17;43.52148;940.1356;;;;
2020/07/13 14:15:42;;;;;;;6.3;1.1;;;;;;;24.85;42.86426;940.162;;;;
2020/07/13 14:18:07;;;;;;;2.1;1.2;;;;;;;24.73;43.51367;940.1295;;;;
2020/07/13 14:20:33;;;;;;;2.5;1;;;;;;;24.43;42.25879;940.1622;;;;
2020/07/13 14:22:58;;;;;;;1.7;0.9;;;;;;;24.52;43.84668;940.1314;;;;
2020/07/13 14:25:39;;;;;;;2.6;1.2;;;;;;;24.45;42.16602;940.0912;;;;
2020/07/13 14:27:52;;;;;;;2.3;0.9;;;;;;;24.44;44.18066;940.0753;;;;
2020/07/13 14:30:17;;;;;;;2.3;0.9;;;;;;;24.29;42.68066;940.0309;;;;
2020/07/13 14:32:42;;;;;;;3.1;1.1;;;;;;;24.42;42.38672;940.0092;;;;
2020/07/13 14:35:13;;;;;;;4.6;1.2;;;;;;;24.42;43.69531;939.9967;;;;
2020/07/13 14:37:38;;;;;;;4;1.2;;;;;;;24.64;44.29492;940.0307;;;;
2020/07/13 14:40:04;;;;;;;2.1;1;;;;;;;24.72;44.91602;939.998;;;;
2020/07/13 14:42:30;;;;;;;2.5;1;;;;;;;24.81;43.15625;940.0406;;;;
2020/07/13 14:44:55;;;;;;;3.6;0.9;;;;;;;24.82;42.7207;939.9261;;;;
2020/07/13 14:47:22;;;;;;;2.2;1;;;;;;;24.83;44.70215;939.9771;;;;